sensor_id;sensor_type;location;lat;lon;timestamp;temperature;humidity
4207;DHT22;2117;47.972;7.830;2023-04-09T00:01:07;7.90;99.90
4207;DHT22;2117;47.972;7.830;2023-04-09T00:03:33;7.80;99.90
4207;DHT22;2117;47.972;7.830;2023-04-09T00:05:59;7.80;99.90
4207;DHT22;2117;47.972;7.830;2023-04-09T00:08:25;7.70;99.90
4207;DHT22;2117;47.972;7.830;2023-04-09T00:10:53;7.70;99.90
4207;DHT22;2117;47.972;7.830;2023-04-09T00:13:19;7.70;99.90
4207;DHT22;2117;47.972;7.830;2023-04-09T00:15:45;7.60;99.90
4207;DHT22;2117;47.972;7.830;2023-04-09T00:18:11;7.50;99.90
4207;DHT22;2117;47.972;7.830;2023-04-09T00:20:37;7.50;99.90
4207;DHT22;2117;47.972;7.830;2023-04-09T00:23:02;7.40;99.90
4207;DHT22;2117;47.972;7.830;2023-04-09T00:25:28;7.40;99.90
4207;DHT22;2117;47.972;7.830;2023-04-09T00:27:54;7.30;99.90
4207;DHT22;2117;47.972;7.830;2023-04-09T00:30:20;7.30;99.90
4207;DHT22;2117;47.972;7.830;2023-04-09T00:32:45;7.20;99.90
4207;DHT22;2117;47.972;7.830;2023-04-09T00:35:11;7.20;99.90
4207;DHT22;2117;47.972;7.830;2023-04-09T00:37:37;7.10;99.90
4207;DHT22;2117;47.972;7.830;2023-04-09T00:40:03;7.00;99.90
4207;DHT22;2117;47.972;7.830;2023-04-09T00:42:35;6.90;99.90
4207;DHT22;2117;47.972;7.830;2023-04-09T00:45:02;6.90;99.90
4207;DHT22;2117;47.972;7.830;2023-04-09T00:47:28;6.90;99.90
4207;DHT22;2117;47.972;7.830;2023-04-09T00:49:55;6.80;99.90
4207;DHT22;2117;47.972;7.830;2023-04-09T00:52:21;6.80;99.90
4207;DHT22;2117;47.972;7.830;2023-04-09T00:54:51;6.70;99.90
4207;DHT22;2117;47.972;7.830;2023-04-09T00:57:18;6.70;99.90
4207;DHT22;2117;47.972;7.830;2023-04-09T00:59:44;6.60;99.90
4207;DHT22;2117;47.972;7.830;2023-04-09T01:02:09;6.50;99.90
4207;DHT22;2117;47.972;7.830;2023-04-09T01:04:35;6.50;99.90
4207;DHT22;2117;47.972;7.830;2023-04-09T01:07:19;6.50;99.90
4207;DHT22;2117;47.972;7.830;2023-04-09T01:12:47;6.40;99.90
4207;DHT22;2117;47.972;7.830;2023-04-09T01:15:18;6.30;99.90
4207;DHT22;2117;47.972;7.830;2023-04-09T01:17:58;6.30;99.90
4207;DHT22;2117;47.972;7.830;2023-04-09T01:20:34;6.20;99.90
4207;DHT22;2117;47.972;7.830;2023-04-09T01:25:43;6.10;99.90
4207;DHT22;2117;47.972;7.830;2023-04-09T01:28:22;6.00;99.90
4207;DHT22;2117;47.972;7.830;2023-04-09T01:30:59;6.00;99.90
4207;DHT22;2117;47.972;7.830;2023-04-09T01:33:26;5.90;99.90
4207;DHT22;2117;47.972;7.830;2023-04-09T01:35:54;5.90;99.90
4207;DHT22;2117;47.972;7.830;2023-04-09T01:38:20;5.90;99.90
4207;DHT22;2117;47.972;7.830;2023-04-09T01:40:48;5.80;99.90
4207;DHT22;2117;47.972;7.830;2023-04-09T01:43:15;5.80;99.90
4207;DHT22;2117;47.972;7.830;2023-04-09T01:45:43;5.80;99.90
4207;DHT22;2117;47.972;7.830;2023-04-09T01:48:09;5.80;99.90
4207;DHT22;2117;47.972;7.830;2023-04-09T01:50:35;5.70;99.90
4207;DHT22;2117;47.972;7.830;2023-04-09T01:53:01;5.70;99.90
4207;DHT22;2117;47.972;7.830;2023-04-09T01:55:26;5.60;99.90
4207;DHT22;2117;47.972;7.830;2023-04-09T01:57:52;5.60;99.90
4207;DHT22;2117;47.972;7.830;2023-04-09T02:00:18;5.50;99.90
4207;DHT22;2117;47.972;7.830;2023-04-09T02:03:07;5.40;99.90
4207;DHT22;2117;47.972;7.830;2023-04-09T02:05:40;5.40;99.90
4207;DHT22;2117;47.972;7.830;2023-04-09T02:08:10;5.40;99.90
4207;DHT22;2117;47.972;7.830;2023-04-09T02:10:37;5.40;99.90
4207;DHT22;2117;47.972;7.830;2023-04-09T02:13:04;5.40;99.90
4207;DHT22;2117;47.972;7.830;2023-04-09T02:15:34;5.30;99.90
4207;DHT22;2117;47.972;7.830;2023-04-09T02:18:00;5.30;99.90
4207;DHT22;2117;47.972;7.830;2023-04-09T02:20:26;5.20;99.90
4207;DHT22;2117;47.972;7.830;2023-04-09T02:22:52;5.20;99.90
4207;DHT22;2117;47.972;7.830;2023-04-09T02:25:18;5.20;99.90
4207;DHT22;2117;47.972;7.830;2023-04-09T02:27:43;5.10;99.90
4207;DHT22;2117;47.972;7.830;2023-04-09T02:30:09;5.10;99.90
4207;DHT22;2117;47.972;7.830;2023-04-09T02:32:35;5.20;99.90
4207;DHT22;2117;47.972;7.830;2023-04-09T02:35:01;5.20;99.90
4207;DHT22;2117;47.972;7.830;2023-04-09T02:37:26;5.20;99.90
4207;DHT22;2117;47.972;7.830;2023-04-09T02:39:52;5.10;99.90
4207;DHT22;2117;47.972;7.830;2023-04-09T02:42:17;5.00;99.90
4207;DHT22;2117;47.972;7.830;2023-04-09T02:44:43;5.00;99.90
4207;DHT22;2117;47.972;7.830;2023-04-09T02:47:08;5.00;99.90
4207;DHT22;2117;47.972;7.830;2023-04-09T02:49:34;5.00;99.90
4207;DHT22;2117;47.972;7.830;2023-04-09T02:52:00;4.90;99.90
4207;DHT22;2117;47.972;7.830;2023-04-09T02:54:25;4.90;99.90
4207;DHT22;2117;47.972;7.830;2023-04-09T02:56:51;4.90;99.90
4207;DHT22;2117;47.972;7.830;2023-04-09T02:59:17;4.90;99.90
4207;DHT22;2117;47.972;7.830;2023-04-09T03:01:42;5.00;99.90
4207;DHT22;2117;47.972;7.830;2023-04-09T03:04:08;5.00;99.90
4207;DHT22;2117;47.972;7.830;2023-04-09T03:06:34;5.00;99.90
4207;DHT22;2117;47.972;7.830;2023-04-09T03:08:59;5.00;99.90
4207;DHT22;2117;47.972;7.830;2023-04-09T03:11:25;5.00;99.90
4207;DHT22;2117;47.972;7.830;2023-04-09T03:13:50;5.00;99.90
4207;DHT22;2117;47.972;7.830;2023-04-09T03:16:16;5.00;99.90
4207;DHT22;2117;47.972;7.830;2023-04-09T03:18:42;4.90;99.90
4207;DHT22;2117;47.972;7.830;2023-04-09T03:21:08;5.00;99.90
4207;DHT22;2117;47.972;7.830;2023-04-09T03:23:33;4.90;99.90
4207;DHT22;2117;47.972;7.830;2023-04-09T03:26:06;4.90;99.90
4207;DHT22;2117;47.972;7.830;2023-04-09T03:28:31;4.90;99.90
4207;DHT22;2117;47.972;7.830;2023-04-09T03:30:57;4.80;99.90
4207;DHT22;2117;47.972;7.830;2023-04-09T03:33:23;4.80;99.90
4207;DHT22;2117;47.972;7.830;2023-04-09T03:35:49;4.70;99.90
4207;DHT22;2117;47.972;7.830;2023-04-09T03:38:15;4.70;99.90
4207;DHT22;2117;47.972;7.830;2023-04-09T03:40:41;4.70;99.90
4207;DHT22;2117;47.972;7.830;2023-04-09T03:43:07;4.70;99.90
4207;DHT22;2117;47.972;7.830;2023-04-09T03:45:32;4.70;99.90
4207;DHT22;2117;47.972;7.830;2023-04-09T03:47:58;4.70;99.90
4207;DHT22;2117;47.972;7.830;2023-04-09T03:50:23;4.60;99.90
4207;DHT22;2117;47.972;7.830;2023-04-09T03:52:49;4.60;99.90
4207;DHT22;2117;47.972;7.830;2023-04-09T03:55:14;4.60;99.90
4207;DHT22;2117;47.972;7.830;2023-04-09T03:57:40;4.60;99.90
4207;DHT22;2117;47.972;7.830;2023-04-09T04:00:06;4.50;99.90
4207;DHT22;2117;47.972;7.830;2023-04-09T04:02:32;4.50;99.90
4207;DHT22;2117;47.972;7.830;2023-04-09T04:05:01;4.40;99.90
4207;DHT22;2117;47.972;7.830;2023-04-09T04:07:26;4.40;99.90
4207;DHT22;2117;47.972;7.830;2023-04-09T04:09:52;4.40;99.90
4207;DHT22;2117;47.972;7.830;2023-04-09T04:12:17;4.30;99.90
4207;DHT22;2117;47.972;7.830;2023-04-09T04:14:43;4.30;99.90
4207;DHT22;2117;47.972;7.830;2023-04-09T04:17:09;4.30;99.90
4207;DHT22;2117;47.972;7.830;2023-04-09T04:19:37;4.30;99.90
4207;DHT22;2117;47.972;7.830;2023-04-09T04:22:02;4.20;99.90
4207;DHT22;2117;47.972;7.830;2023-04-09T04:24:28;4.20;99.90
4207;DHT22;2117;47.972;7.830;2023-04-09T04:26:53;4.20;99.90
4207;DHT22;2117;47.972;7.830;2023-04-09T04:29:20;4.20;99.90
4207;DHT22;2117;47.972;7.830;2023-04-09T04:31:45;4.10;99.90
4207;DHT22;2117;47.972;7.830;2023-04-09T04:34:11;4.10;99.90
4207;DHT22;2117;47.972;7.830;2023-04-09T04:36:37;4.10;99.90
4207;DHT22;2117;47.972;7.830;2023-04-09T04:39:02;4.00;99.90
4207;DHT22;2117;47.972;7.830;2023-04-09T04:41:28;4.00;99.90
4207;DHT22;2117;47.972;7.830;2023-04-09T04:43:53;3.90;99.90
4207;DHT22;2117;47.972;7.830;2023-04-09T04:46:19;3.90;99.90
4207;DHT22;2117;47.972;7.830;2023-04-09T04:48:45;3.90;99.90
4207;DHT22;2117;47.972;7.830;2023-04-09T04:51:10;3.80;99.90
4207;DHT22;2117;47.972;7.830;2023-04-09T04:53:36;3.90;99.90
4207;DHT22;2117;47.972;7.830;2023-04-09T04:56:01;3.90;99.90
4207;DHT22;2117;47.972;7.830;2023-04-09T04:58:27;3.80;99.90
4207;DHT22;2117;47.972;7.830;2023-04-09T05:00:53;3.80;99.90
4207;DHT22;2117;47.972;7.830;2023-04-09T05:03:19;3.80;99.90
4207;DHT22;2117;47.972;7.830;2023-04-09T05:05:44;3.90;99.90
4207;DHT22;2117;47.972;7.830;2023-04-09T05:08:10;3.80;99.90
4207;DHT22;2117;47.972;7.830;2023-04-09T05:10:36;3.80;99.90
4207;DHT22;2117;47.972;7.830;2023-04-09T05:13:01;3.80;99.90
4207;DHT22;2117;47.972;7.830;2023-04-09T05:15:27;3.80;99.90
4207;DHT22;2117;47.972;7.830;2023-04-09T05:17:53;3.90;99.90
4207;DHT22;2117;47.972;7.830;2023-04-09T05:20:18;3.90;99.90
4207;DHT22;2117;47.972;7.830;2023-04-09T05:22:44;3.90;99.90
4207;DHT22;2117;47.972;7.830;2023-04-09T05:25:09;3.90;99.90
4207;DHT22;2117;47.972;7.830;2023-04-09T05:27:35;4.00;99.90
4207;DHT22;2117;47.972;7.830;2023-04-09T05:30:01;3.90;99.90
4207;DHT22;2117;47.972;7.830;2023-04-09T05:32:27;4.00;99.90
4207;DHT22;2117;47.972;7.830;2023-04-09T05:34:52;3.90;99.90
4207;DHT22;2117;47.972;7.830;2023-04-09T05:37:18;3.90;99.90
4207;DHT22;2117;47.972;7.830;2023-04-09T05:39:43;3.90;99.90
4207;DHT22;2117;47.972;7.830;2023-04-09T05:42:09;3.90;99.90
4207;DHT22;2117;47.972;7.830;2023-04-09T05:44:34;3.90;99.90
4207;DHT22;2117;47.972;7.830;2023-04-09T05:47:00;3.90;99.90
4207;DHT22;2117;47.972;7.830;2023-04-09T05:49:26;3.90;99.90
4207;DHT22;2117;47.972;7.830;2023-04-09T05:51:51;4.00;99.90
4207;DHT22;2117;47.972;7.830;2023-04-09T05:54:17;4.00;99.90
4207;DHT22;2117;47.972;7.830;2023-04-09T05:56:43;4.00;99.90
4207;DHT22;2117;47.972;7.830;2023-04-09T05:59:08;4.10;99.90
4207;DHT22;2117;47.972;7.830;2023-04-09T06:01:34;4.10;99.90
4207;DHT22;2117;47.972;7.830;2023-04-09T06:03:59;4.20;99.90
4207;DHT22;2117;47.972;7.830;2023-04-09T06:06:25;4.20;99.90
4207;DHT22;2117;47.972;7.830;2023-04-09T06:08:51;4.30;99.90
4207;DHT22;2117;47.972;7.830;2023-04-09T06:11:17;4.30;99.90
4207;DHT22;2117;47.972;7.830;2023-04-09T06:13:42;4.20;99.90
4207;DHT22;2117;47.972;7.830;2023-04-09T06:16:08;4.20;99.90
4207;DHT22;2117;47.972;7.830;2023-04-09T06:18:36;4.30;99.90
4207;DHT22;2117;47.972;7.830;2023-04-09T06:21:08;4.30;99.90
4207;DHT22;2117;47.972;7.830;2023-04-09T06:23:34;4.40;99.90
4207;DHT22;2117;47.972;7.830;2023-04-09T06:26:00;4.50;99.90
4207;DHT22;2117;47.972;7.830;2023-04-09T06:28:27;4.60;99.90
4207;DHT22;2117;47.972;7.830;2023-04-09T06:30:53;4.80;99.90
4207;DHT22;2117;47.972;7.830;2023-04-09T06:33:20;4.90;99.90
4207;DHT22;2117;47.972;7.830;2023-04-09T06:35:46;5.00;99.90
4207;DHT22;2117;47.972;7.830;2023-04-09T06:38:11;5.30;99.90
4207;DHT22;2117;47.972;7.830;2023-04-09T06:40:37;5.30;99.90
4207;DHT22;2117;47.972;7.830;2023-04-09T06:43:04;5.40;99.90
4207;DHT22;2117;47.972;7.830;2023-04-09T06:45:30;5.50;99.90
4207;DHT22;2117;47.972;7.830;2023-04-09T06:47:57;5.80;99.90
4207;DHT22;2117;47.972;7.830;2023-04-09T06:50:23;5.80;99.90
4207;DHT22;2117;47.972;7.830;2023-04-09T06:52:49;5.90;99.90
4207;DHT22;2117;47.972;7.830;2023-04-09T06:55:15;6.00;99.90
4207;DHT22;2117;47.972;7.830;2023-04-09T06:57:41;6.10;99.90
4207;DHT22;2117;47.972;7.830;2023-04-09T07:00:07;6.30;99.90
4207;DHT22;2117;47.972;7.830;2023-04-09T07:02:34;6.30;99.90
4207;DHT22;2117;47.972;7.830;2023-04-09T07:04:59;6.50;99.90
4207;DHT22;2117;47.972;7.830;2023-04-09T07:07:25;6.60;99.90
4207;DHT22;2117;47.972;7.830;2023-04-09T07:09:52;6.70;99.90
4207;DHT22;2117;47.972;7.830;2023-04-09T07:12:30;6.80;99.90
4207;DHT22;2117;47.972;7.830;2023-04-09T07:15:03;6.90;99.90
4207;DHT22;2117;47.972;7.830;2023-04-09T07:17:33;7.10;99.90
4207;DHT22;2117;47.972;7.830;2023-04-09T07:19:59;7.20;99.90
4207;DHT22;2117;47.972;7.830;2023-04-09T07:22:26;7.30;99.90
4207;DHT22;2117;47.972;7.830;2023-04-09T07:24:51;7.40;99.90
4207;DHT22;2117;47.972;7.830;2023-04-09T07:27:22;7.50;99.90
4207;DHT22;2117;47.972;7.830;2023-04-09T07:29:48;7.70;99.90
4207;DHT22;2117;47.972;7.830;2023-04-09T07:32:13;7.80;99.90
4207;DHT22;2117;47.972;7.830;2023-04-09T07:34:40;7.90;99.90
4207;DHT22;2117;47.972;7.830;2023-04-09T07:37:06;8.10;99.90
4207;DHT22;2117;47.972;7.830;2023-04-09T07:39:31;8.20;99.90
4207;DHT22;2117;47.972;7.830;2023-04-09T07:41:57;8.20;99.90
4207;DHT22;2117;47.972;7.830;2023-04-09T07:44:24;8.30;99.90
4207;DHT22;2117;47.972;7.830;2023-04-09T07:46:49;8.40;99.90
4207;DHT22;2117;47.972;7.830;2023-04-09T07:49:15;8.30;99.90
4207;DHT22;2117;47.972;7.830;2023-04-09T07:51:41;8.30;99.90
4207;DHT22;2117;47.972;7.830;2023-04-09T07:54:07;8.30;99.90
4207;DHT22;2117;47.972;7.830;2023-04-09T07:56:33;8.40;99.90
4207;DHT22;2117;47.972;7.830;2023-04-09T07:58:58;8.40;99.90
4207;DHT22;2117;47.972;7.830;2023-04-09T08:01:24;8.50;99.90
4207;DHT22;2117;47.972;7.830;2023-04-09T08:03:50;8.60;99.90
4207;DHT22;2117;47.972;7.830;2023-04-09T08:06:16;8.70;99.90
4207;DHT22;2117;47.972;7.830;2023-04-09T08:08:42;8.70;99.90
4207;DHT22;2117;47.972;7.830;2023-04-09T08:11:08;8.80;99.90
4207;DHT22;2117;47.972;7.830;2023-04-09T08:13:33;8.90;99.90
4207;DHT22;2117;47.972;7.830;2023-04-09T08:16:02;9.00;99.90
4207;DHT22;2117;47.972;7.830;2023-04-09T08:18:28;9.00;99.90
4207;DHT22;2117;47.972;7.830;2023-04-09T08:20:54;9.00;99.90
4207;DHT22;2117;47.972;7.830;2023-04-09T08:23:20;9.10;99.90
4207;DHT22;2117;47.972;7.830;2023-04-09T08:25:45;9.20;99.90
4207;DHT22;2117;47.972;7.830;2023-04-09T08:28:11;9.40;99.90
4207;DHT22;2117;47.972;7.830;2023-04-09T08:30:36;9.40;99.90
4207;DHT22;2117;47.972;7.830;2023-04-09T08:33:02;9.50;99.90
4207;DHT22;2117;47.972;7.830;2023-04-09T08:35:30;9.50;99.90
4207;DHT22;2117;47.972;7.830;2023-04-09T08:37:56;9.70;99.90
4207;DHT22;2117;47.972;7.830;2023-04-09T08:40:22;9.70;99.90
4207;DHT22;2117;47.972;7.830;2023-04-09T08:42:52;9.70;99.90
4207;DHT22;2117;47.972;7.830;2023-04-09T08:45:19;9.70;99.90
4207;DHT22;2117;47.972;7.830;2023-04-09T08:47:47;9.80;99.90
4207;DHT22;2117;47.972;7.830;2023-04-09T08:50:13;9.80;99.90
4207;DHT22;2117;47.972;7.830;2023-04-09T08:52:39;9.90;99.90
4207;DHT22;2117;47.972;7.830;2023-04-09T08:55:06;9.90;99.90
4207;DHT22;2117;47.972;7.830;2023-04-09T08:57:38;10.00;99.90
4207;DHT22;2117;47.972;7.830;2023-04-09T09:00:04;10.10;99.90
4207;DHT22;2117;47.972;7.830;2023-04-09T09:02:30;10.10;99.90
4207;DHT22;2117;47.972;7.830;2023-04-09T09:04:56;10.20;99.90
4207;DHT22;2117;47.972;7.830;2023-04-09T09:07:26;10.30;99.90
4207;DHT22;2117;47.972;7.830;2023-04-09T09:10:00;10.40;99.90
4207;DHT22;2117;47.972;7.830;2023-04-09T09:12:39;10.60;99.90
4207;DHT22;2117;47.972;7.830;2023-04-09T09:15:24;10.60;99.90
4207;DHT22;2117;47.972;7.830;2023-04-09T09:17:57;10.70;99.90
4207;DHT22;2117;47.972;7.830;2023-04-09T09:20:24;10.80;99.90
4207;DHT22;2117;47.972;7.830;2023-04-09T09:22:54;10.90;99.90
4207;DHT22;2117;47.972;7.830;2023-04-09T09:25:21;11.10;99.90
4207;DHT22;2117;47.972;7.830;2023-04-09T09:27:50;11.20;99.90
4207;DHT22;2117;47.972;7.830;2023-04-09T09:30:24;11.40;99.90
4207;DHT22;2117;47.972;7.830;2023-04-09T09:33:03;11.50;99.90
4207;DHT22;2117;47.972;7.830;2023-04-09T09:35:29;11.70;99.90
4207;DHT22;2117;47.972;7.830;2023-04-09T09:38:03;11.80;99.90
4207;DHT22;2117;47.972;7.830;2023-04-09T09:40:29;11.80;99.90
4207;DHT22;2117;47.972;7.830;2023-04-09T09:42:55;11.90;99.90
4207;DHT22;2117;47.972;7.830;2023-04-09T09:45:22;12.10;99.90
4207;DHT22;2117;47.972;7.830;2023-04-09T09:47:48;12.20;99.90
4207;DHT22;2117;47.972;7.830;2023-04-09T09:50:14;12.30;99.90
4207;DHT22;2117;47.972;7.830;2023-04-09T09:52:44;12.30;99.90
4207;DHT22;2117;47.972;7.830;2023-04-09T09:55:12;12.40;99.60
4207;DHT22;2117;47.972;7.830;2023-04-09T09:57:42;12.40;99.90
4207;DHT22;2117;47.972;7.830;2023-04-09T10:00:11;12.50;99.90
4207;DHT22;2117;47.972;7.830;2023-04-09T10:02:45;12.60;99.90
4207;DHT22;2117;47.972;7.830;2023-04-09T10:05:12;12.60;99.90
4207;DHT22;2117;47.972;7.830;2023-04-09T10:07:38;12.70;99.90
4207;DHT22;2117;47.972;7.830;2023-04-09T10:10:06;12.70;99.20
4207;DHT22;2117;47.972;7.830;2023-04-09T10:12:33;12.80;99.70
4207;DHT22;2117;47.972;7.830;2023-04-09T10:14:59;12.90;98.60
4207;DHT22;2117;47.972;7.830;2023-04-09T10:17:29;13.00;98.30
4207;DHT22;2117;47.972;7.830;2023-04-09T10:20:04;13.10;98.40
4207;DHT22;2117;47.972;7.830;2023-04-09T10:22:33;13.20;98.50
4207;DHT22;2117;47.972;7.830;2023-04-09T10:24:59;13.30;98.20
4207;DHT22;2117;47.972;7.830;2023-04-09T10:27:25;13.40;98.30
4207;DHT22;2117;47.972;7.830;2023-04-09T10:29:51;13.50;97.50
4207;DHT22;2117;47.972;7.830;2023-04-09T10:32:23;13.60;97.70
4207;DHT22;2117;47.972;7.830;2023-04-09T10:34:56;13.70;97.40
4207;DHT22;2117;47.972;7.830;2023-04-09T10:37:24;13.80;96.90
4207;DHT22;2117;47.972;7.830;2023-04-09T10:39:51;13.90;96.80
4207;DHT22;2117;47.972;7.830;2023-04-09T10:42:19;14.00;97.00
4207;DHT22;2117;47.972;7.830;2023-04-09T10:45:08;14.20;97.00
4207;DHT22;2117;47.972;7.830;2023-04-09T10:47:36;14.30;95.00
4207;DHT22;2117;47.972;7.830;2023-04-09T10:50:25;14.40;95.70
4207;DHT22;2117;47.972;7.830;2023-04-09T10:52:54;14.50;95.30
4207;DHT22;2117;47.972;7.830;2023-04-09T10:55:40;14.60;94.60
4207;DHT22;2117;47.972;7.830;2023-04-09T10:58:07;14.80;95.90
4207;DHT22;2117;47.972;7.830;2023-04-09T11:00:40;14.80;96.10
4207;DHT22;2117;47.972;7.830;2023-04-09T11:03:26;15.00;96.30
4207;DHT22;2117;47.972;7.830;2023-04-09T11:08:21;15.30;95.60
4207;DHT22;2117;47.972;7.830;2023-04-09T11:10:47;15.60;95.40
4207;DHT22;2117;47.972;7.830;2023-04-09T11:13:14;15.80;94.90
4207;DHT22;2117;47.972;7.830;2023-04-09T11:15:40;16.00;95.70
4207;DHT22;2117;47.972;7.830;2023-04-09T11:18:06;16.50;93.60
4207;DHT22;2117;47.972;7.830;2023-04-09T11:20:34;16.50;94.00
4207;DHT22;2117;47.972;7.830;2023-04-09T11:23:00;17.00;94.50
4207;DHT22;2117;47.972;7.830;2023-04-09T11:25:28;17.30;94.00
4207;DHT22;2117;47.972;7.830;2023-04-09T11:27:55;17.70;94.30
4207;DHT22;2117;47.972;7.830;2023-04-09T11:30:20;17.90;93.70
4207;DHT22;2117;47.972;7.830;2023-04-09T11:32:47;18.10;93.70
4207;DHT22;2117;47.972;7.830;2023-04-09T11:35:14;18.30;94.70
4207;DHT22;2117;47.972;7.830;2023-04-09T11:37:41;18.70;93.10
4207;DHT22;2117;47.972;7.830;2023-04-09T11:40:13;18.90;92.90
4207;DHT22;2117;47.972;7.830;2023-04-09T11:42:40;19.10;92.50
4207;DHT22;2117;47.972;7.830;2023-04-09T11:45:06;18.90;91.20
4207;DHT22;2117;47.972;7.830;2023-04-09T11:47:32;19.20;91.50
4207;DHT22;2117;47.972;7.830;2023-04-09T11:49:58;19.50;91.10
4207;DHT22;2117;47.972;7.830;2023-04-09T11:52:23;19.80;89.40
4207;DHT22;2117;47.972;7.830;2023-04-09T11:54:49;20.00;91.70
4207;DHT22;2117;47.972;7.830;2023-04-09T11:57:15;20.40;91.30
4207;DHT22;2117;47.972;7.830;2023-04-09T11:59:41;20.60;89.40
4207;DHT22;2117;47.972;7.830;2023-04-09T12:02:06;20.60;90.30
4207;DHT22;2117;47.972;7.830;2023-04-09T12:04:32;20.80;90.30
4207;DHT22;2117;47.972;7.830;2023-04-09T12:06:58;21.00;89.80
4207;DHT22;2117;47.972;7.830;2023-04-09T12:09:24;21.00;87.20
4207;DHT22;2117;47.972;7.830;2023-04-09T12:11:49;20.90;89.10
4207;DHT22;2117;47.972;7.830;2023-04-09T12:14:16;21.10;86.50
4207;DHT22;2117;47.972;7.830;2023-04-09T12:16:42;21.20;88.40
4207;DHT22;2117;47.972;7.830;2023-04-09T12:19:10;21.30;89.20
4207;DHT22;2117;47.972;7.830;2023-04-09T12:21:49;21.60;88.30
4207;DHT22;2117;47.972;7.830;2023-04-09T12:24:18;21.70;89.50
4207;DHT22;2117;47.972;7.830;2023-04-09T12:26:47;21.70;84.10
4207;DHT22;2117;47.972;7.830;2023-04-09T12:29:14;22.00;84.70
4207;DHT22;2117;47.972;7.830;2023-04-09T12:31:40;22.40;81.50
4207;DHT22;2117;47.972;7.830;2023-04-09T12:34:06;22.40;82.60
4207;DHT22;2117;47.972;7.830;2023-04-09T12:36:32;22.50;83.00
4207;DHT22;2117;47.972;7.830;2023-04-09T12:38:58;22.60;83.20
4207;DHT22;2117;47.972;7.830;2023-04-09T12:41:23;22.30;79.50
4207;DHT22;2117;47.972;7.830;2023-04-09T12:43:49;22.20;81.40
4207;DHT22;2117;47.972;7.830;2023-04-09T12:46:16;22.40;83.60
4207;DHT22;2117;47.972;7.830;2023-04-09T12:48:42;22.70;79.90
4207;DHT22;2117;47.972;7.830;2023-04-09T12:51:07;22.80;83.20
4207;DHT22;2117;47.972;7.830;2023-04-09T12:53:33;23.10;83.10
4207;DHT22;2117;47.972;7.830;2023-04-09T12:55:58;23.20;81.10
4207;DHT22;2117;47.972;7.830;2023-04-09T12:58:24;23.30;80.20
4207;DHT22;2117;47.972;7.830;2023-04-09T13:00:50;23.30;80.50
4207;DHT22;2117;47.972;7.830;2023-04-09T13:03:17;23.50;80.00
4207;DHT22;2117;47.972;7.830;2023-04-09T13:05:42;23.60;77.90
4207;DHT22;2117;47.972;7.830;2023-04-09T13:08:08;23.60;77.50
4207;DHT22;2117;47.972;7.830;2023-04-09T13:10:34;23.80;79.30
4207;DHT22;2117;47.972;7.830;2023-04-09T13:13:01;23.90;76.60
4207;DHT22;2117;47.972;7.830;2023-04-09T13:15:26;24.20;79.30
4207;DHT22;2117;47.972;7.830;2023-04-09T13:17:52;24.40;77.50
4207;DHT22;2117;47.972;7.830;2023-04-09T13:20:17;24.50;74.50
4207;DHT22;2117;47.972;7.830;2023-04-09T13:22:43;24.50;74.80
4207;DHT22;2117;47.972;7.830;2023-04-09T13:25:15;24.60;74.20
4207;DHT22;2117;47.972;7.830;2023-04-09T13:27:42;24.50;76.40
4207;DHT22;2117;47.972;7.830;2023-04-09T13:30:08;24.50;72.90
4207;DHT22;2117;47.972;7.830;2023-04-09T13:32:33;24.60;76.00
4207;DHT22;2117;47.972;7.830;2023-04-09T13:34:59;24.70;72.50
4207;DHT22;2117;47.972;7.830;2023-04-09T13:37:25;24.70;71.20
4207;DHT22;2117;47.972;7.830;2023-04-09T13:39:50;24.80;75.80
4207;DHT22;2117;47.972;7.830;2023-04-09T13:42:16;25.10;76.00
4207;DHT22;2117;47.972;7.830;2023-04-09T13:44:42;25.10;70.90
4207;DHT22;2117;47.972;7.830;2023-04-09T13:47:10;25.10;71.30
4207;DHT22;2117;47.972;7.830;2023-04-09T13:49:38;25.10;70.30
4207;DHT22;2117;47.972;7.830;2023-04-09T13:52:04;25.20;72.50
4207;DHT22;2117;47.972;7.830;2023-04-09T13:54:30;25.40;74.00
4207;DHT22;2117;47.972;7.830;2023-04-09T13:56:55;25.50;71.70
4207;DHT22;2117;47.972;7.830;2023-04-09T13:59:21;25.60;71.40
4207;DHT22;2117;47.972;7.830;2023-04-09T14:01:47;25.50;73.40
4207;DHT22;2117;47.972;7.830;2023-04-09T14:04:12;25.50;73.70
4207;DHT22;2117;47.972;7.830;2023-04-09T14:06:38;25.70;74.10
4207;DHT22;2117;47.972;7.830;2023-04-09T14:09:03;25.40;69.60
4207;DHT22;2117;47.972;7.830;2023-04-09T14:11:29;25.50;73.70
4207;DHT22;2117;47.972;7.830;2023-04-09T14:13:55;25.50;70.40
4207;DHT22;2117;47.972;7.830;2023-04-09T14:16:20;25.60;71.90
4207;DHT22;2117;47.972;7.830;2023-04-09T14:18:46;25.60;70.80
4207;DHT22;2117;47.972;7.830;2023-04-09T14:21:12;25.10;67.80
4207;DHT22;2117;47.972;7.830;2023-04-09T14:23:38;25.30;70.50
4207;DHT22;2117;47.972;7.830;2023-04-09T14:26:05;25.30;69.60
4207;DHT22;2117;47.972;7.830;2023-04-09T14:28:31;25.40;71.90
4207;DHT22;2117;47.972;7.830;2023-04-09T14:30:57;25.60;71.70
4207;DHT22;2117;47.972;7.830;2023-04-09T14:33:24;25.70;69.30
4207;DHT22;2117;47.972;7.830;2023-04-09T14:35:50;25.80;70.90
4207;DHT22;2117;47.972;7.830;2023-04-09T14:38:15;25.80;67.60
4207;DHT22;2117;47.972;7.830;2023-04-09T14:40:42;26.00;68.80
4207;DHT22;2117;47.972;7.830;2023-04-09T14:43:08;25.90;68.10
4207;DHT22;2117;47.972;7.830;2023-04-09T14:45:34;25.80;67.30
4207;DHT22;2117;47.972;7.830;2023-04-09T14:47:59;25.60;68.30
4207;DHT22;2117;47.972;7.830;2023-04-09T14:50:25;25.50;68.80
4207;DHT22;2117;47.972;7.830;2023-04-09T14:52:51;25.60;68.10
4207;DHT22;2117;47.972;7.830;2023-04-09T14:55:17;25.70;69.40
4207;DHT22;2117;47.972;7.830;2023-04-09T14:57:42;25.80;69.40
4207;DHT22;2117;47.972;7.830;2023-04-09T15:00:10;25.70;69.50
4207;DHT22;2117;47.972;7.830;2023-04-09T15:02:36;25.50;66.40
4207;DHT22;2117;47.972;7.830;2023-04-09T15:05:03;25.40;68.30
4207;DHT22;2117;47.972;7.830;2023-04-09T15:07:29;25.10;70.20
4207;DHT22;2117;47.972;7.830;2023-04-09T15:09:56;25.10;69.00
4207;DHT22;2117;47.972;7.830;2023-04-09T15:12:21;25.10;68.80
4207;DHT22;2117;47.972;7.830;2023-04-09T15:14:47;25.10;67.00
4207;DHT22;2117;47.972;7.830;2023-04-09T15:17:12;24.80;64.00
4207;DHT22;2117;47.972;7.830;2023-04-09T15:19:38;24.40;69.50
4207;DHT22;2117;47.972;7.830;2023-04-09T15:22:03;24.40;66.70
4207;DHT22;2117;47.972;7.830;2023-04-09T15:24:29;24.30;67.60
4207;DHT22;2117;47.972;7.830;2023-04-09T15:26:54;24.10;67.30
4207;DHT22;2117;47.972;7.830;2023-04-09T15:29:21;24.00;68.30
4207;DHT22;2117;47.972;7.830;2023-04-09T15:31:46;23.70;68.60
4207;DHT22;2117;47.972;7.830;2023-04-09T15:34:13;23.70;69.20
4207;DHT22;2117;47.972;7.830;2023-04-09T15:36:39;23.40;66.90
4207;DHT22;2117;47.972;7.830;2023-04-09T15:39:05;23.00;68.80
4207;DHT22;2117;47.972;7.830;2023-04-09T15:41:31;22.60;66.60
4207;DHT22;2117;47.972;7.830;2023-04-09T15:43:58;22.20;69.90
4207;DHT22;2117;47.972;7.830;2023-04-09T15:46:24;21.80;69.00
4207;DHT22;2117;47.972;7.830;2023-04-09T15:48:49;21.30;68.40
4207;DHT22;2117;47.972;7.830;2023-04-09T15:51:15;20.90;69.20
4207;DHT22;2117;47.972;7.830;2023-04-09T15:53:41;20.50;71.40
4207;DHT22;2117;47.972;7.830;2023-04-09T15:56:06;20.30;72.20
4207;DHT22;2117;47.972;7.830;2023-04-09T15:58:32;20.10;73.00
4207;DHT22;2117;47.972;7.830;2023-04-09T16:00:58;19.90;72.00
4207;DHT22;2117;47.972;7.830;2023-04-09T16:03:23;19.70;73.00
4207;DHT22;2117;47.972;7.830;2023-04-09T16:05:49;19.60;74.90
4207;DHT22;2117;47.972;7.830;2023-04-09T16:08:14;19.50;73.50
4207;DHT22;2117;47.972;7.830;2023-04-09T16:10:40;19.40;75.60
4207;DHT22;2117;47.972;7.830;2023-04-09T16:13:06;19.20;75.80
4207;DHT22;2117;47.972;7.830;2023-04-09T16:15:31;19.10;73.70